createdAt,value
2022-08-20T00:01:00.730Z,18.5
2022-08-20T00:02:17.044Z,18.6
2022-08-20T00:03:33.323Z,18.6
2022-08-20T00:04:48.629Z,19.1
2022-08-20T00:06:04.941Z,19.1
2022-08-20T00:07:21.227Z,18.2
2022-08-20T00:08:37.514Z,18
2022-08-20T00:09:53.817Z,18.4
2022-08-20T00:11:10.105Z,19.6
2022-08-20T00:12:26.409Z,19.1
2022-08-20T00:13:42.705Z,18.2
2022-08-20T00:14:58.992Z,19.1
2022-08-20T00:16:15.291Z,18.6
2022-08-20T00:17:31.570Z,18.5
2022-08-20T00:18:47.878Z,20.1
2022-08-20T00:20:04.169Z,20.2
2022-08-20T00:21:19.469Z,18.7
2022-08-20T00:22:35.758Z,20
2022-08-20T00:23:52.054Z,19.2
2022-08-20T00:25:08.356Z,19.4
2022-08-20T00:26:24.642Z,18.9
2022-08-20T00:27:40.947Z,21.5
2022-08-20T00:28:57.243Z,19.5
2022-08-20T00:30:13.527Z,20
2022-08-20T00:31:29.824Z,19.8
2022-08-20T00:32:46.113Z,19.1
2022-08-20T00:34:02.413Z,19.6
2022-08-20T00:35:18.702Z,20.4
2022-08-20T00:36:35.014Z,20
2022-08-20T00:37:50.319Z,19.9
2022-08-20T00:39:06.611Z,19.9
2022-08-20T00:40:22.896Z,21
2022-08-20T00:41:39.188Z,20.8
2022-08-20T00:42:55.488Z,20.5
2022-08-20T00:44:11.788Z,20.7
2022-08-20T00:45:28.090Z,20.6
2022-08-20T00:46:44.370Z,20.5
2022-08-20T00:48:00.670Z,20.5
2022-08-20T00:49:16.960Z,20.4
2022-08-20T00:50:33.268Z,20.3
2022-08-20T00:51:49.548Z,19.9
2022-08-20T00:53:05.856Z,20.7
2022-08-20T00:54:21.150Z,21.8
2022-08-20T00:55:37.444Z,20.8
2022-08-20T00:56:53.751Z,20.4
2022-08-20T00:58:10.052Z,20.4
2022-08-20T00:59:26.326Z,22.5
2022-08-20T01:00:42.621Z,21.4
2022-08-20T01:01:57.947Z,20.4
2022-08-20T01:03:14.234Z,21.7
2022-08-20T01:04:30.542Z,21.3
2022-08-20T01:05:46.830Z,21.1
2022-08-20T01:07:03.124Z,21
2022-08-20T01:08:19.428Z,20.1
2022-08-20T01:09:35.707Z,20.1
2022-08-20T01:10:52.007Z,20.4
2022-08-20T01:12:08.291Z,21.3
2022-08-20T01:13:24.589Z,21.4
2022-08-20T01:14:40.879Z,21
2022-08-20T01:15:57.175Z,21.4
2022-08-20T01:17:13.467Z,20.9
2022-08-20T01:18:28.770Z,20.5
2022-08-20T01:19:45.067Z,21.5
2022-08-20T01:21:01.359Z,21.2
2022-08-20T01:22:17.664Z,20.6
2022-08-20T01:23:33.949Z,22.1
2022-08-20T01:24:50.245Z,21.9
2022-08-20T01:26:06.552Z,22.7
2022-08-20T01:27:22.830Z,22.9
2022-08-20T01:28:39.130Z,21.6
2022-08-20T01:29:55.421Z,21.8
2022-08-20T01:31:11.714Z,21.5
2022-08-20T01:32:28.000Z,21.2
2022-08-20T01:33:44.292Z,21.3
2022-08-20T01:34:59.601Z,21.5
2022-08-20T01:36:15.900Z,21.1
2022-08-20T01:37:32.207Z,20.2
2022-08-20T01:38:48.483Z,21.1
2022-08-20T01:40:04.780Z,21.1
2022-08-20T01:41:21.082Z,20.2
2022-08-20T01:42:37.383Z,21.2
2022-08-20T01:43:53.662Z,19.5
2022-08-20T01:45:09.955Z,20.7
2022-08-20T01:46:26.251Z,20.8
2022-08-20T01:47:42.548Z,20.3
2022-08-20T01:48:58.845Z,19.6
2022-08-20T01:50:15.128Z,20.9
2022-08-20T01:51:30.435Z,19.5
2022-08-20T01:52:46.735Z,20.5
2022-08-20T01:54:03.027Z,19.5
2022-08-20T01:55:19.326Z,19.5
2022-08-20T01:56:35.606Z,20.4
2022-08-20T01:57:51.909Z,20.5
2022-08-20T01:59:08.190Z,19.4
2022-08-20T02:00:24.478Z,19.8
2022-08-20T02:01:40.779Z,19.5
2022-08-20T02:02:57.079Z,20
2022-08-20T02:04:13.000Z,20
2022-08-20T02:05:29.668Z,20
2022-08-20T02:06:45.954Z,20.7
2022-08-20T02:08:01.259Z,19.5
2022-08-20T02:09:17.548Z,19.2
2022-08-20T02:10:33.854Z,20.3
2022-08-20T02:11:50.149Z,20.3
2022-08-20T02:13:06.445Z,19.4
2022-08-20T02:14:22.728Z,19.8
2022-08-20T02:15:39.012Z,20.4
2022-08-20T02:16:55.311Z,18.9
2022-08-20T02:18:11.599Z,18.6
2022-08-20T02:19:27.906Z,19.1
2022-08-20T02:20:44.191Z,18.4
2022-08-20T02:22:00.485Z,19.6
2022-08-20T02:23:16.790Z,18.1
2022-08-20T02:24:32.083Z,19.8
2022-08-20T02:25:48.388Z,19.3
2022-08-20T02:27:04.673Z,19.5
2022-08-20T02:28:20.991Z,18.7
2022-08-20T02:29:37.269Z,18.7
2022-08-20T02:30:53.564Z,18.9
2022-08-20T02:32:09.851Z,19.8
2022-08-20T02:33:26.147Z,18.2
2022-08-20T02:34:42.446Z,18.6
2022-08-20T02:35:58.745Z,19
2022-08-20T02:37:15.018Z,19
2022-08-20T02:38:31.318Z,19.5
2022-08-20T02:39:47.617Z,19.6
2022-08-20T02:41:02.921Z,18.2
2022-08-20T02:42:19.216Z,18.5
2022-08-20T02:43:35.521Z,18.7
2022-08-20T02:44:51.810Z,18.3
2022-08-20T02:46:08.088Z,18.9
2022-08-20T02:47:24.389Z,18.9
2022-08-20T02:48:40.675Z,17.7
2022-08-20T02:49:56.981Z,18.8
2022-08-20T02:51:13.274Z,19.3
2022-08-20T02:52:29.566Z,18.5
2022-08-20T02:53:45.857Z,19.9
2022-08-20T02:55:02.154Z,18.4
2022-08-20T02:56:18.456Z,18.1
2022-08-20T02:57:33.745Z,19
2022-08-20T02:58:50.052Z,18.2
2022-08-20T03:00:06.337Z,17.2
2022-08-20T03:01:22.635Z,19
2022-08-20T03:02:38.935Z,18.7
2022-08-20T03:03:55.223Z,19.5
2022-08-20T03:05:11.514Z,17.7
2022-08-20T03:06:27.807Z,18.7
2022-08-20T03:07:44.091Z,18.1
2022-08-20T03:09:00.389Z,18.3
2022-08-20T03:10:16.689Z,18.8
2022-08-20T03:11:32.971Z,18.2
2022-08-20T03:12:49.279Z,17.8
2022-08-20T03:14:04.592Z,18.4
2022-08-20T03:15:20.869Z,18.5
2022-08-20T03:16:37.169Z,18.8
2022-08-20T03:17:53.472Z,17.8
2022-08-20T03:19:09.761Z,18.3
2022-08-20T03:20:26.048Z,18.3
2022-08-20T03:21:42.363Z,18.3
2022-08-20T03:22:58.631Z,19.1
2022-08-20T03:24:14.933Z,18.9
2022-08-20T03:25:31.223Z,18.5
2022-08-20T03:26:47.522Z,18
2022-08-20T03:28:03.813Z,18.4
2022-08-20T03:29:20.110Z,18.2
2022-08-20T03:30:35.432Z,19.6
2022-08-20T03:31:51.713Z,19
2022-08-20T03:33:08.013Z,18.1
2022-08-20T03:34:24.306Z,18.3
2022-08-20T03:35:40.596Z,19.8
2022-08-20T03:36:56.878Z,18.9
2022-08-20T03:38:13.186Z,19.2
2022-08-20T03:39:29.473Z,18.5
2022-08-20T03:40:45.777Z,18.9
2022-08-20T03:42:02.073Z,18.5
2022-08-20T03:43:18.358Z,17.9
2022-08-20T03:44:34.643Z,18.2
2022-08-20T03:45:50.936Z,19.1
2022-08-20T03:47:06.259Z,18.8
2022-08-20T03:48:22.493Z,19.4
2022-08-20T03:49:38.797Z,18.4
2022-08-20T03:50:55.091Z,19.3
2022-08-20T03:52:11.323Z,18.3
2022-08-20T03:53:27.562Z,17.5
2022-08-20T03:54:43.823Z,18.2
2022-08-20T03:56:00.050Z,19
2022-08-20T03:57:16.283Z,18.4
2022-08-20T03:58:32.583Z,17.9
2022-08-20T03:59:48.849Z,18.6
2022-08-20T04:01:05.081Z,18.5
2022-08-20T04:02:21.329Z,18.9
2022-08-20T04:03:36.581Z,18.3
2022-08-20T04:04:52.812Z,18.5
2022-08-20T04:06:09.052Z,18.6
2022-08-20T04:07:25.298Z,18.8
2022-08-20T04:08:41.543Z,18.5
2022-08-20T04:09:57.784Z,18.9
2022-08-20T04:11:14.000Z,19.6
2022-08-20T04:12:30.256Z,18.6
2022-08-20T04:13:46.499Z,19.9
2022-08-20T04:15:02.744Z,18.9
2022-08-20T04:16:18.977Z,19
2022-08-20T04:17:35.209Z,20.1
2022-08-20T04:18:51.457Z,19.2
2022-08-20T04:20:06.713Z,19.2
2022-08-20T04:21:22.947Z,18.6
2022-08-20T04:22:39.183Z,20
2022-08-20T04:23:55.444Z,19.1
2022-08-20T04:25:11.671Z,19.5
2022-08-20T04:26:27.914Z,19.2
2022-08-20T04:27:44.166Z,18.9
2022-08-20T04:29:00.407Z,18.8
2022-08-20T04:30:16.632Z,18.6
2022-08-20T04:31:32.870Z,19.3
2022-08-20T04:32:49.110Z,20.7
2022-08-20T04:34:05.352Z,19.3
2022-08-20T04:35:21.593Z,19.2
2022-08-20T04:36:36.836Z,19.6
2022-08-20T04:37:53.089Z,20
2022-08-20T04:39:09.335Z,18.9
2022-08-20T04:40:25.569Z,19.5
2022-08-20T04:41:41.800Z,18.4
2022-08-20T04:42:58.037Z,19.1
2022-08-20T04:44:14.276Z,18.9
2022-08-20T04:45:30.531Z,19.2
2022-08-20T04:46:46.772Z,19.4
2022-08-20T04:48:03.002Z,20.5
2022-08-20T04:49:19.240Z,18.9
2022-08-20T04:50:35.496Z,19.6
2022-08-20T04:51:51.729Z,19.7
2022-08-20T04:53:06.984Z,20
2022-08-20T04:54:23.238Z,20.5
2022-08-20T04:55:39.470Z,19.6
2022-08-20T04:56:55.695Z,20.3
2022-08-20T04:58:11.938Z,20.7
2022-08-20T04:59:28.191Z,20
2022-08-20T05:00:44.433Z,19.7
2022-08-20T05:02:00.666Z,20.1
2022-08-20T05:03:16.910Z,20.6
2022-08-20T05:04:33.144Z,20.6
2022-08-20T05:05:49.381Z,19.6
2022-08-20T05:07:05.629Z,20.1
2022-08-20T05:08:21.874Z,21.2
2022-08-20T05:09:37.122Z,19.5
2022-08-20T05:10:53.351Z,20.2
2022-08-20T05:12:09.610Z,20.6
2022-08-20T05:13:25.856Z,19.8
2022-08-20T05:14:42.073Z,20.1
2022-08-20T05:15:58.322Z,20.2
2022-08-20T05:17:13.577Z,20.1
2022-08-20T05:18:29.807Z,19.8
2022-08-20T05:19:46.063Z,19.9
2022-08-20T05:21:02.298Z,20.9
2022-08-20T05:22:18.525Z,21.5
2022-08-20T05:23:34.767Z,19.5
2022-08-20T05:24:51.014Z,20.4
2022-08-20T05:26:07.264Z,19.7
2022-08-20T05:27:23.488Z,19.6
2022-08-20T05:28:39.748Z,19.6
2022-08-20T05:29:55.973Z,20.6
2022-08-20T05:31:12.206Z,20.3
2022-08-20T05:32:28.462Z,20.1
2022-08-20T05:33:43.705Z,20.9
2022-08-20T05:34:59.962Z,21.2
2022-08-20T05:36:16.200Z,20.2
2022-08-20T05:37:32.445Z,21.6
2022-08-20T05:38:48.675Z,21.1
2022-08-20T05:40:04.916Z,20
2022-08-20T05:41:21.156Z,19.8
2022-08-20T05:42:37.381Z,20.8
2022-08-20T05:43:53.627Z,20.8
2022-08-20T05:45:09.876Z,20.8
2022-08-20T05:46:26.109Z,20.1
2022-08-20T05:47:42.354Z,21
2022-08-20T05:48:58.590Z,20.3
2022-08-20T05:50:13.835Z,21.5
2022-08-20T05:51:30.075Z,19.8
2022-08-20T05:52:46.321Z,19.5
2022-08-20T05:54:02.551Z,20.5
2022-08-20T05:55:18.803Z,20.8
2022-08-20T05:56:35.043Z,20.9
2022-08-20T05:57:51.282Z,20.6
2022-08-20T05:59:07.525Z,20.7
2022-08-20T06:00:23.755Z,20.1
2022-08-20T06:01:39.992Z,21.1
2022-08-20T06:02:56.230Z,21.7
2022-08-20T06:04:12.475Z,21.6
2022-08-20T06:05:28.715Z,21.1
2022-08-20T06:06:43.988Z,21.3
2022-08-20T06:08:00.223Z,22.4
2022-08-20T06:09:16.462Z,20.8
2022-08-20T06:10:32.700Z,21
2022-08-20T06:11:48.939Z,22.3
2022-08-20T06:13:05.167Z,22.3
2022-08-20T06:14:21.416Z,21.7
2022-08-20T06:15:37.642Z,21
2022-08-20T06:16:53.895Z,21.7
2022-08-20T06:18:10.140Z,22.1
2022-08-20T06:19:26.388Z,22.3
2022-08-20T06:20:42.596Z,22.2
2022-08-20T06:21:58.851Z,22.3
2022-08-20T06:23:14.103Z,22.3
2022-08-20T06:24:30.349Z,24.1
2022-08-20T06:25:46.582Z,22
2022-08-20T06:27:02.818Z,21.1
2022-08-20T06:28:19.050Z,21.9
2022-08-20T06:29:35.303Z,21.4
2022-08-20T06:30:51.531Z,22.8
2022-08-20T06:32:07.780Z,21.4
2022-08-20T06:33:24.026Z,21.1
2022-08-20T06:34:40.273Z,22.6
2022-08-20T06:35:56.510Z,22.4
2022-08-20T06:37:12.743Z,22.6
2022-08-20T06:38:28.981Z,21.7
2022-08-20T06:39:44.240Z,21.3
2022-08-20T06:41:00.477Z,22.8
2022-08-20T06:42:16.704Z,22
2022-08-20T06:43:32.953Z,22.1
2022-08-20T06:44:49.187Z,21.3
2022-08-20T06:46:05.444Z,21.3
2022-08-20T06:47:21.685Z,21.7
2022-08-20T06:48:37.903Z,22
2022-08-20T06:49:54.158Z,21.8
2022-08-20T06:51:10.391Z,20.2
2022-08-20T06:52:26.636Z,19.7
2022-08-20T06:53:42.870Z,19.7
2022-08-20T06:54:59.118Z,20
2022-08-20T06:56:14.370Z,20.5
2022-08-20T06:57:30.610Z,18.8
2022-08-20T06:58:46.860Z,19.2
2022-08-20T07:00:03.088Z,20.1
2022-08-20T07:01:19.326Z,20.6
2022-08-20T07:02:35.563Z,18.6
2022-08-20T07:03:51.812Z,19.8
2022-08-20T07:05:08.052Z,19.1
2022-08-20T07:06:24.280Z,18.8
2022-08-20T07:07:40.542Z,17.6
2022-08-20T07:08:56.769Z,18.4
2022-08-20T07:10:13.007Z,17.7
2022-08-20T07:11:29.238Z,17.9
2022-08-20T07:12:44.514Z,18.5
2022-08-20T07:14:00.734Z,17.7
2022-08-20T07:15:16.987Z,18
2022-08-20T07:16:33.222Z,18.8
2022-08-20T07:17:49.481Z,18.8
2022-08-20T07:19:05.722Z,17.6
2022-08-20T07:20:21.937Z,17.9
2022-08-20T07:21:38.182Z,18
2022-08-20T07:22:54.418Z,17.8
2022-08-20T07:24:10.656Z,17.1
2022-08-20T07:25:26.905Z,18.3
2022-08-20T07:26:43.128Z,16.4
2022-08-20T07:27:59.383Z,16.2
2022-08-20T07:29:14.638Z,16.5
2022-08-20T07:30:30.864Z,16.6
2022-08-20T07:31:47.114Z,16.3
2022-08-20T07:33:03.354Z,15.8
2022-08-20T07:34:19.604Z,16.8
2022-08-20T07:35:35.846Z,16.2
2022-08-20T07:36:52.073Z,17.2
2022-08-20T07:38:08.307Z,16.8
2022-08-20T07:39:24.547Z,16.6
2022-08-20T07:40:40.812Z,16.7
2022-08-20T07:41:57.034Z,16.6
2022-08-20T07:43:13.272Z,17.3
2022-08-20T07:44:29.518Z,16
2022-08-20T07:45:44.785Z,17.3
2022-08-20T07:47:01.001Z,16.9
2022-08-20T07:48:17.261Z,16.7
2022-08-20T07:49:33.491Z,16.9
2022-08-20T07:50:49.736Z,17
2022-08-20T07:52:05.969Z,17.4
2022-08-20T07:53:22.204Z,17.5
2022-08-20T07:54:38.460Z,17.3
2022-08-20T07:55:54.707Z,16.7
2022-08-20T07:57:10.927Z,17.6
2022-08-20T07:58:27.171Z,17
2022-08-20T07:59:43.407Z,18.8
2022-08-20T08:00:59.675Z,16.8
2022-08-20T08:02:14.907Z,17.6
2022-08-20T08:03:31.156Z,17.6
2022-08-20T08:04:47.403Z,17.7
2022-08-20T08:06:03.636Z,18
2022-08-20T08:07:19.865Z,18.5
2022-08-20T08:08:36.103Z,18.1
2022-08-20T08:09:52.352Z,17.3
2022-08-20T08:11:08.615Z,18.3
2022-08-20T08:12:24.839Z,18.2
2022-08-20T08:13:41.082Z,18.3
2022-08-20T08:14:57.308Z,19
2022-08-20T08:16:13.550Z,19
2022-08-20T08:17:29.789Z,18.8
2022-08-20T08:18:45.041Z,17.9
2022-08-20T08:20:01.290Z,18.6
2022-08-20T08:21:17.518Z,18.4
2022-08-20T08:22:33.770Z,19
2022-08-20T08:23:49.997Z,17.7
2022-08-20T08:25:06.251Z,17.9
2022-08-20T08:26:22.495Z,16
2022-08-20T08:27:38.000Z,17.2
2022-08-20T08:28:54.979Z,17.8
2022-08-20T08:30:11.206Z,18.2
2022-08-20T08:31:27.452Z,15.8
2022-08-20T08:33:59.941Z,16.1
2022-08-20T08:35:15.174Z,15.5
2022-08-20T08:36:31.412Z,15.9
2022-08-20T08:37:47.665Z,15
2022-08-20T08:39:03.901Z,16.1
2022-08-20T08:40:20.129Z,17.3
2022-08-20T08:41:36.396Z,15.8
2022-08-20T08:42:52.633Z,15.6
2022-08-20T08:44:08.867Z,16
2022-08-20T08:45:25.088Z,15.6
2022-08-20T08:46:41.351Z,16.7
2022-08-20T08:47:57.587Z,16.9
2022-08-20T08:49:13.823Z,16.4
2022-08-20T08:50:30.080Z,15.5
2022-08-20T08:51:45.326Z,15
2022-08-20T08:53:01.552Z,15.1
2022-08-20T08:54:17.794Z,15.6
2022-08-20T08:55:34.037Z,16.3
2022-08-20T08:56:50.272Z,16.3
2022-08-20T08:58:06.523Z,14.7
2022-08-20T08:59:22.758Z,16.7
2022-08-20T09:00:38.994Z,16.6
2022-08-20T09:01:55.226Z,16.2
2022-08-20T09:03:11.463Z,16.1
2022-08-20T09:04:27.718Z,16.7
2022-08-20T09:05:43.944Z,16.2
2022-08-20T09:07:00.179Z,15.8
2022-08-20T09:08:15.441Z,15.9
2022-08-20T09:09:31.691Z,16.8
2022-08-20T09:10:47.930Z,15.6
2022-08-20T09:12:04.171Z,15.6
2022-08-20T09:13:20.413Z,15
2022-08-20T09:14:36.669Z,16.3
2022-08-20T09:15:52.890Z,16.7
2022-08-20T09:17:09.129Z,15.7
2022-08-20T09:18:25.372Z,15.4
2022-08-20T09:19:41.602Z,15.6
2022-08-20T09:20:57.843Z,15.7
2022-08-20T09:22:14.090Z,15.1
2022-08-20T09:23:30.332Z,16.6
2022-08-20T09:24:45.594Z,15.9
2022-08-20T09:26:01.820Z,15.8
2022-08-20T09:27:18.054Z,15.8
2022-08-20T09:28:34.317Z,16.4
2022-08-20T09:29:50.534Z,17.3
2022-08-20T09:31:06.785Z,16.5
2022-08-20T09:32:22.055Z,15.3
2022-08-20T09:33:38.284Z,16.5
2022-08-20T09:34:54.519Z,14.7
2022-08-20T09:36:10.758Z,17
2022-08-20T09:37:27.011Z,15.3
2022-08-20T09:38:43.247Z,15.5
2022-08-20T09:39:59.490Z,16
2022-08-20T09:41:15.720Z,15.4
2022-08-20T09:42:31.974Z,16.1
2022-08-20T09:43:48.205Z,15.8
2022-08-20T09:45:04.455Z,15.1
2022-08-20T09:46:20.678Z,15.9
2022-08-20T09:47:36.919Z,16.4
2022-08-20T09:48:52.176Z,15.9
2022-08-20T09:50:08.445Z,15.8
2022-08-20T09:51:24.655Z,15.5
2022-08-20T09:52:40.904Z,15.7
2022-08-20T09:53:57.132Z,17.1
2022-08-20T09:55:13.394Z,17.4
2022-08-20T09:56:29.620Z,15.3
2022-08-20T09:57:45.851Z,16.3
2022-08-20T09:59:02.113Z,15.1
2022-08-20T10:00:18.350Z,16
2022-08-20T10:01:34.578Z,15.2
2022-08-20T10:02:50.811Z,16.1
2022-08-20T10:04:07.053Z,15.2
2022-08-20T10:05:22.331Z,15.3
2022-08-20T10:06:38.556Z,16.2
2022-08-20T10:07:54.811Z,15.7
2022-08-20T10:09:11.044Z,15.4
2022-08-20T10:10:27.298Z,15.8
2022-08-20T10:11:43.510Z,15.5
2022-08-20T10:12:59.767Z,17.1
2022-08-20T10:14:15.994Z,16.2
2022-08-20T10:15:32.258Z,16.5
2022-08-20T10:16:48.469Z,16.2
2022-08-20T10:18:04.730Z,16.6
2022-08-20T10:19:20.968Z,15.8
2022-08-20T10:20:37.209Z,17.5
2022-08-20T10:21:52.466Z,17.3
2022-08-20T10:23:08.704Z,17.6
2022-08-20T10:24:24.945Z,17.1
2022-08-20T10:25:41.184Z,17.6
2022-08-20T10:26:57.427Z,16.4
2022-08-20T10:28:13.654Z,16.2
2022-08-20T10:29:29.912Z,16.4
2022-08-20T10:30:46.146Z,17.8
2022-08-20T10:32:02.366Z,17.5
2022-08-20T10:33:18.608Z,16.5
2022-08-20T10:34:34.860Z,17.5
2022-08-20T10:35:51.117Z,17.6
2022-08-20T10:37:07.330Z,18.8
2022-08-20T10:38:22.607Z,16.7
2022-08-20T10:39:38.827Z,18.2
2022-08-20T10:40:55.064Z,18.8
2022-08-20T10:42:11.324Z,17.2
2022-08-20T10:43:27.565Z,18.8
2022-08-20T10:44:43.790Z,20.4
2022-08-20T10:46:00.046Z,18.5
2022-08-20T10:47:16.274Z,18.8
2022-08-20T10:48:32.512Z,19.7
2022-08-20T10:49:48.748Z,19.9
2022-08-20T10:51:04.985Z,18.9
2022-08-20T10:52:21.237Z,18.6
2022-08-20T10:53:37.469Z,19.4
2022-08-20T10:54:52.720Z,18.1
2022-08-20T10:56:08.970Z,19.9
2022-08-20T10:57:25.214Z,19.8
2022-08-20T10:58:41.473Z,20.2
2022-08-20T10:59:57.716Z,19.9
2022-08-20T11:01:13.938Z,19.3
2022-08-20T11:02:30.161Z,18.2
2022-08-20T11:03:46.424Z,18.8
2022-08-20T11:05:02.662Z,17.9
2022-08-20T11:06:18.899Z,19.8
2022-08-20T11:07:35.138Z,18.5
2022-08-20T11:08:51.367Z,18
2022-08-20T11:10:07.602Z,18.7
2022-08-20T11:11:22.883Z,18.6
2022-08-20T11:12:39.113Z,18.2
2022-08-20T11:13:55.359Z,19.7
2022-08-20T11:15:11.607Z,19.8
2022-08-20T11:16:27.827Z,17.6
2022-08-20T11:17:44.073Z,17.2
2022-08-20T11:19:00.316Z,18.7
2022-08-20T11:20:16.543Z,18.3
2022-08-20T11:21:32.801Z,17.9
2022-08-20T11:22:49.019Z,18.6
2022-08-20T11:24:05.267Z,18.3
2022-08-20T11:25:21.502Z,19.3
2022-08-20T11:26:37.735Z,18.6
2022-08-20T11:27:53.021Z,17.5
2022-08-20T11:29:09.250Z,17.3
2022-08-20T11:30:25.497Z,18
2022-08-20T11:31:41.709Z,18.3
2022-08-20T11:32:57.960Z,17.9
2022-08-20T11:34:14.189Z,18
2022-08-20T11:35:30.445Z,18.7
2022-08-20T11:36:46.700Z,18.4
2022-08-20T11:38:02.928Z,17.4
2022-08-20T11:39:19.153Z,18.2
2022-08-20T11:40:35.392Z,18.1
2022-08-20T11:41:51.650Z,19
2022-08-20T11:43:07.866Z,19.3
2022-08-20T11:44:23.149Z,18.1
2022-08-20T11:45:39.388Z,18.1
2022-08-20T11:46:55.626Z,18.1
2022-08-20T11:48:11.850Z,18.6
2022-08-20T11:49:28.099Z,19
2022-08-20T11:50:44.330Z,18.3
2022-08-20T11:52:00.569Z,17.7
2022-08-20T11:53:16.806Z,17.9
2022-08-20T11:54:33.065Z,18.1
2022-08-20T11:55:49.293Z,17.6
2022-08-20T11:57:05.540Z,17.4
2022-08-20T11:58:21.774Z,18.5
2022-08-20T11:59:38.023Z,18.4
2022-08-20T12:00:53.258Z,19.2
2022-08-20T12:02:09.517Z,18.5
2022-08-20T12:03:25.755Z,18.3
2022-08-20T12:04:42.001Z,18.4
2022-08-20T12:05:58.235Z,18.8
2022-08-20T12:07:14.474Z,18.3
2022-08-20T12:08:30.706Z,18.2
2022-08-20T12:09:46.959Z,18.5
2022-08-20T12:11:03.178Z,18.6
2022-08-20T12:12:19.438Z,19.2
2022-08-20T12:13:35.660Z,18.5
2022-08-20T12:14:51.898Z,19.3
2022-08-20T12:16:08.134Z,20.8
2022-08-20T12:17:23.388Z,20.7
2022-08-20T12:18:39.639Z,19.7
2022-08-20T12:19:55.885Z,19.6
2022-08-20T12:21:12.121Z,19.4
2022-08-20T12:22:28.350Z,18.3
2022-08-20T12:23:44.588Z,19.1
2022-08-20T12:25:00.859Z,17.7
2022-08-20T12:26:17.076Z,18.6
2022-08-20T12:27:33.334Z,17.9
2022-08-20T12:28:49.562Z,18.8
2022-08-20T12:30:05.810Z,18
2022-08-20T12:31:22.054Z,19.6
2022-08-20T12:32:38.285Z,19.9
2022-08-20T12:33:53.522Z,18.5
2022-08-20T12:35:09.757Z,17.4
2022-08-20T12:36:25.996Z,18.2
2022-08-20T12:37:42.251Z,17.5
2022-08-20T12:38:58.479Z,18.8
2022-08-20T12:40:14.722Z,19.1
2022-08-20T12:41:30.963Z,18.2
2022-08-20T12:42:47.194Z,19.4
2022-08-20T12:44:03.440Z,18.3
2022-08-20T12:45:19.678Z,18.7
2022-08-20T12:46:35.916Z,18.7
2022-08-20T12:47:52.175Z,18.4
2022-08-20T12:49:08.405Z,18.8
2022-08-20T12:50:23.665Z,18.6
2022-08-20T12:51:39.904Z,17.5
2022-08-20T12:52:56.134Z,18.6
2022-08-20T12:54:12.393Z,19.6
2022-08-20T12:55:28.604Z,18.7
2022-08-20T12:56:44.856Z,19.6
2022-08-20T12:58:01.093Z,19.6
2022-08-20T12:59:17.327Z,19.8
2022-08-20T13:00:33.571Z,20.2
2022-08-20T13:01:49.818Z,19.9
2022-08-20T13:03:06.050Z,18.9
2022-08-20T13:04:22.289Z,18.3
2022-08-20T13:05:38.548Z,18.8
2022-08-20T13:06:53.787Z,18.7
2022-08-20T13:08:10.021Z,19.4
2022-08-20T13:09:26.289Z,18.1
2022-08-20T13:10:42.520Z,19.4
2022-08-20T13:11:58.757Z,18
2022-08-20T13:13:14.989Z,18.8
2022-08-20T13:14:31.222Z,16.2
2022-08-20T13:15:47.485Z,17.8
2022-08-20T13:17:03.700Z,16.6
2022-08-20T13:18:19.963Z,18.2
2022-08-20T13:19:36.184Z,17
2022-08-20T13:20:52.432Z,16.2
2022-08-20T13:22:08.693Z,16.6
2022-08-20T13:23:23.919Z,15.8
2022-08-20T13:24:40.167Z,14.1
2022-08-20T13:25:56.417Z,14.1
2022-08-20T13:27:12.648Z,14.1
2022-08-20T13:28:28.891Z,15
2022-08-20T13:29:45.000Z,14.5
2022-08-20T13:31:01.376Z,13.9
2022-08-20T13:32:17.629Z,14.7
2022-08-20T13:33:33.837Z,16.5
2022-08-20T13:34:50.079Z,15.4
2022-08-20T13:36:06.324Z,16.2
2022-08-20T13:37:22.569Z,17.1
2022-08-20T13:38:38.815Z,16.1
2022-08-20T13:39:54.057Z,16.1
2022-08-20T13:41:10.303Z,16.9
2022-08-20T13:42:26.530Z,15.8
2022-08-20T13:43:42.795Z,16.8
2022-08-20T13:44:59.008Z,16.1
2022-08-20T13:46:15.253Z,17.2
2022-08-20T13:47:30.520Z,17.5
2022-08-20T13:48:46.747Z,18.1
2022-08-20T13:50:02.998Z,17.6
2022-08-20T13:51:19.234Z,17.4
2022-08-20T13:52:35.466Z,16.8
2022-08-20T13:53:51.711Z,17.4
2022-08-20T13:55:07.974Z,17.8
2022-08-20T13:56:24.195Z,18
2022-08-20T13:57:40.434Z,18.5
2022-08-20T13:58:56.687Z,18.2
2022-08-20T14:00:12.901Z,19.1
2022-08-20T14:01:29.141Z,18.9
2022-08-20T14:02:45.382Z,18.3
2022-08-20T14:04:00.665Z,17.7
2022-08-20T14:05:16.893Z,17.7
2022-08-20T14:06:33.146Z,18
2022-08-20T14:07:49.358Z,17.6
2022-08-20T14:09:05.626Z,19.7
2022-08-20T14:10:21.841Z,18.5
2022-08-20T14:11:38.083Z,18.4
2022-08-20T14:12:54.337Z,18.5
2022-08-20T14:14:10.557Z,19
2022-08-20T14:15:26.816Z,17.6
2022-08-20T14:16:43.039Z,18.3
2022-08-20T14:17:59.287Z,17.7
2022-08-20T14:19:15.556Z,18.1
2022-08-20T14:20:30.784Z,18.1
2022-08-20T14:21:47.041Z,17
2022-08-20T14:23:03.263Z,17.7
2022-08-20T14:24:19.517Z,17.3
2022-08-20T14:25:35.747Z,17.7
2022-08-20T14:26:51.984Z,18.5
2022-08-20T14:28:08.212Z,17.3
2022-08-20T14:29:24.461Z,17.1
2022-08-20T14:30:40.728Z,17.3
2022-08-20T14:31:56.964Z,17.7
2022-08-20T14:33:13.185Z,16.6
2022-08-20T14:34:29.435Z,16.1
2022-08-20T14:35:45.663Z,17
2022-08-20T14:37:00.908Z,17.2
2022-08-20T14:38:17.158Z,16.5
2022-08-20T14:39:33.398Z,16
2022-08-20T14:40:49.662Z,16.9
2022-08-20T14:42:05.877Z,17.9
2022-08-20T14:43:22.112Z,16.7
2022-08-20T14:44:38.361Z,15.7
2022-08-20T14:45:54.616Z,16
2022-08-20T14:47:10.852Z,16
2022-08-20T14:48:27.070Z,17.2
2022-08-20T14:49:43.303Z,17.2
2022-08-20T14:50:59.561Z,17.2
2022-08-20T14:52:15.794Z,16.9
2022-08-20T14:53:31.045Z,17.3
2022-08-20T14:54:47.282Z,17
2022-08-20T14:56:03.520Z,17.4
2022-08-20T14:57:19.768Z,18.3
2022-08-20T14:58:36.003Z,18.8
2022-08-20T14:59:52.250Z,16.9
2022-08-20T15:01:08.489Z,16.8
2022-08-20T15:02:24.743Z,17.2
2022-08-20T15:03:40.994Z,17.8
2022-08-20T15:04:57.206Z,17.8
2022-08-20T15:06:13.439Z,16.7
2022-08-20T15:07:29.709Z,16.8
2022-08-20T15:08:45.919Z,16.2
2022-08-20T15:10:01.182Z,15.6
2022-08-20T15:11:17.445Z,16.3
2022-08-20T15:12:33.679Z,16.6
2022-08-20T15:13:49.898Z,17.1
2022-08-20T15:15:06.133Z,17.3
2022-08-20T15:16:22.372Z,16.8
2022-08-20T15:17:38.626Z,17.1
2022-08-20T15:18:54.892Z,17.1
2022-08-20T15:20:11.126Z,16.6
2022-08-20T15:21:27.368Z,17.7
2022-08-20T15:22:43.574Z,17.4
2022-08-20T15:23:59.812Z,17.8
2022-08-20T15:25:16.058Z,16.7
2022-08-20T15:26:31.306Z,16.3
2022-08-20T15:27:47.558Z,17.6
2022-08-20T15:29:03.819Z,16.8
2022-08-20T15:30:20.036Z,16.9
2022-08-20T15:31:36.269Z,16.3
2022-08-20T15:32:52.528Z,17
2022-08-20T15:34:08.745Z,18.4
2022-08-20T15:35:25.012Z,17.3
2022-08-20T15:36:41.221Z,16.9
2022-08-20T15:37:57.467Z,17.4
2022-08-20T15:39:13.000Z,16.9
2022-08-20T15:40:29.974Z,17.2
2022-08-20T15:41:46.179Z,16.8
2022-08-20T15:43:01.435Z,16.3
2022-08-20T15:44:17.712Z,16.2
2022-08-20T15:45:33.956Z,16.6
2022-08-20T15:46:50.178Z,16.4
2022-08-20T15:48:06.398Z,17.6
2022-08-20T15:49:22.665Z,17.2
2022-08-20T15:50:38.872Z,17.1
2022-08-20T15:51:55.110Z,18.3
2022-08-20T15:53:11.365Z,18.1
2022-08-20T15:54:27.591Z,17.8
2022-08-20T15:55:43.846Z,17.3
2022-08-20T15:57:00.074Z,17.7
2022-08-20T15:58:16.340Z,18.9
2022-08-20T15:59:31.570Z,17.7
2022-08-20T16:00:47.838Z,17.8
2022-08-20T16:02:04.053Z,18.5
2022-08-20T16:03:20.317Z,17.8
2022-08-20T16:04:36.568Z,18
2022-08-20T16:05:52.763Z,18.2
2022-08-20T16:07:09.028Z,18.6
2022-08-20T16:08:25.245Z,18.3
2022-08-20T16:09:41.492Z,18.1
2022-08-20T16:10:57.753Z,18.3
2022-08-20T16:12:13.991Z,17.7
2022-08-20T16:13:30.227Z,17.3
2022-08-20T16:14:46.457Z,17.4
2022-08-20T16:16:01.703Z,17.9
2022-08-20T16:17:17.941Z,18.2
2022-08-20T16:18:34.172Z,17.7
2022-08-20T16:19:50.408Z,18.1
2022-08-20T16:21:06.000Z,19
2022-08-20T16:22:22.898Z,18.6
2022-08-20T16:23:39.129Z,18.1
2022-08-20T16:24:55.369Z,18.9
2022-08-20T16:26:11.608Z,18.6
2022-08-20T16:27:27.882Z,18.2
2022-08-20T16:28:44.086Z,18.3
2022-08-20T16:30:00.344Z,18.1
2022-08-20T16:31:16.565Z,16.6
2022-08-20T16:32:31.862Z,17.9
2022-08-20T16:33:48.064Z,18.6
2022-08-20T16:35:04.332Z,17.7
2022-08-20T16:36:20.549Z,17.7
2022-08-20T16:37:36.792Z,17.1
2022-08-20T16:38:53.024Z,17.3
2022-08-20T16:40:09.264Z,17.3
2022-08-20T16:41:25.504Z,16.7
2022-08-20T16:42:41.765Z,17.4
2022-08-20T16:43:58.012Z,16.6
2022-08-20T16:45:14.224Z,17.6
2022-08-20T16:46:30.469Z,17.2
2022-08-20T16:47:46.711Z,17.1
2022-08-20T16:49:01.955Z,16.8
2022-08-20T16:50:18.231Z,16.8
2022-08-20T16:51:34.469Z,16.9
2022-08-20T16:52:50.680Z,16.9
2022-08-20T16:54:06.913Z,16.8
2022-08-20T16:55:23.158Z,16.6
2022-08-20T16:56:39.398Z,16.8
2022-08-20T16:57:55.660Z,17.4
2022-08-20T16:59:11.876Z,16.6
2022-08-20T17:00:28.121Z,18
2022-08-20T17:01:44.357Z,16.3